Latest Weather Observations for Grove

IDT60901

Issued at 10:01 pm EST Monday 25 July 2016 (issued every 10 minutes, with the page automatically refreshed every 10 minutes)

About weather observations | Map of Hobart area stations | Latest observations for Hobart area | Other Formats
Station Details ID: 094220 Name: GROVE (RESEARCH STATION) Lat: -42.99 Lon: 147.07 Height: 65.0 m
Data from the previous 72 hours. | See also: Recent months at Grove
Date/Time
EST
Temp
°C
App
Temp
°C
Dew
Point
°C
Rel
Hum
%
Delta-T
°C
Wind Press
QNH
hPa
Press
MSL
hPa
Rain since
9am
mm
Dir  Spd
km/h
Gust
km/h
Spd
kts
Gust
kts
25/10:00pm 6.9 3.0 1.2 67 2.3 W 11 17 6 9 - - 1.4
25/09:30pm 7.8 2.8 1.4 64 2.6 W 17 30 9 16 - - 1.4
25/09:00pm 7.5 4.5 4.0 78 1.5 W 9 28 5 15 - - 1.4
25/08:30pm 7.9 4.5 4.0 76 1.7 N 11 22 6 12 - - 1.2
25/08:00pm 8.3 3.3 3.4 71 2.1 N 19 41 10 22 - - 0.6
25/07:30pm 10.0 4.6 1.0 53 3.7 N 19 41 10 22 - - 0.2
25/07:00pm 8.9 5.4 1.1 58 3.2 SE 9 19 5 10 - - 0.2
25/06:30pm 7.9 5.2 2.4 68 2.3 WSW 6 9 3 5 - - 0.2
25/06:00pm 9.4 5.9 1.4 57 3.3 NNE 9 17 5 9 - - 0.2
25/05:30pm 9.4 4.4 1.4 57 3.3 E 17 32 9 17 - - 0.2
25/05:00pm 9.8 5.5 1.1 54 3.6 N 13 26 7 14 - - 0.2
25/04:30pm 9.7 6.4 2.4 60 3.1 NNE 9 15 5 8 - - 0.2
25/04:00pm 10.3 6.8 3.5 62 3.0 N 11 19 6 10 - - 0.2
25/03:30pm 10.6 6.4 3.6 62 3.1 N 15 22 8 12 - - 0.2
25/03:00pm 10.4 6.2 3.6 63 3.0 N 15 22 8 12 - - 0.2
25/02:30pm 10.5 6.1 2.9 59 3.3 N 15 24 8 13 - - 0.2
25/02:00pm 11.3 7.0 3.1 57 3.6 N 15 20 8 11 - - 0.2
25/01:30pm 11.1 7.7 2.0 53 3.9 WNW 9 19 5 10 - - 0.2
25/01:00pm 11.4 6.9 2.4 54 3.9 WNW 15 24 8 13 - - 0.2
25/12:30pm 10.7 7.6 3.7 62 3.1 W 9 17 5 9 - - 0.2
25/12:00pm 10.2 9.1 4.9 69 2.4 CALM 0 0 0 0 - - 0.2
25/11:30am 8.2 5.8 4.1 75 1.8 SW 6 9 3 5 - - 0.2
25/11:00am 7.3 4.8 3.8 78 1.5 SW 6 9 3 5 - - 0.2
25/10:30am 6.7 5.0 3.9 82 1.2 E 2 9 1 5 - - 0.2
25/10:00am 4.5 2.0 3.5 93 0.4 SSW 6 9 3 5 - - 0.2
25/09:30am 3.3 0.5 2.0 91 0.5 NE 6 11 3 6 - - 0.2
25/09:00am 1.3 - - - - WSW 2 7 1 4 - - 0.0
25/08:30am 0.2 - - - - CALM 0 0 0 0 - - 0.0
25/08:00am -0.1 - - - - WNW 4 7 2 4 - - 0.0
25/07:30am -0.2 - - - - CALM 0 6 0 3 - - 0.0
25/07:00am -0.1 - - - - SE 4 7 2 4 - - 0.0
25/06:30am 0.0 - - - - N 2 7 1 4 - - 0.0
25/06:00am -0.3 - - - - N 6 9 3 5 - - 0.0
25/05:30am -0.4 - - - - CALM 0 0 0 0 - - 0.0
25/05:00am -0.5 - - - - SSW 7 11 4 6 - - 0.0
25/04:30am -0.6 - - - - NNE 2 7 1 4 - - 0.0
25/04:00am -0.4 - - - - NE 6 7 3 4 - - 0.0
25/03:30am -0.3 - - - - N 4 9 2 5 - - 0.0
25/03:00am -0.3 - - - - CALM 0 0 0 0 - - 0.0
25/02:30am -0.1 - - - - CALM 0 6 0 3 - - 0.0
25/02:00am -0.2 - - - - N 4 6 2 3 - - 0.0
25/01:30am -0.2 - - - - NNE 6 9 3 5 - - 0.0
25/01:00am -0.4 - - - - NE 6 9 3 5 - - 0.0
25/12:30am -0.2 - - - - NNW 2 6 1 3 - - 0.0
25/12:00am -0.3 - - - - N 2 7 1 4 - - 0.0
 
Date/Time
EST
Temp
°C
App
Temp
°C
Dew
Point
°C
Rel
Hum
%
Delta-T
°C
Wind Press
QNH
hPa
Press
MSL
hPa
Rain since
9am
mm
Dir  Spd
km/h
Gust
km/h
Spd
kts
Gust
kts
24/11:30pm 0.2 - - - - N 2 7 1 4 - - 0.0
24/11:00pm 0.1 - - - - NNE 7 11 4 6 - - 0.0
24/10:30pm -0.2 - - - - N 2 7 1 4 - - 0.0
24/10:00pm 0.0 - - - - CALM 0 0 0 0 - - 0.0
24/09:30pm 0.1 - - - - N 6 9 3 5 - - 0.0
24/09:00pm 0.4 - - - - NW 2 7 1 4 - - 0.0
24/08:30pm 0.6 -1.7 0.6 100 0.0 NE 2 9 1 5 - - 0.0
24/08:00pm 0.9 -2.1 0.6 98 0.1 NNE 6 9 3 5 - - 0.0
24/07:30pm 1.3 -1.3 1.0 98 0.1 NNE 4 9 2 5 - - 0.0
24/07:00pm 2.0 -1.0 1.7 98 0.1 N 7 11 4 6 - - 0.0
24/06:30pm 2.6 0.9 2.1 96 0.2 CALM 0 0 0 0 - - 0.0
24/06:00pm 2.9 -0.4 2.6 98 0.1 NNE 9 15 5 8 - - 0.0
24/05:30pm 4.0 1.7 2.8 92 0.5 NW 4 7 2 4 - - 0.0
24/05:00pm 5.5 4.1 3.6 87 0.8 CALM 0 0 0 0 - - 0.0
24/04:30pm 7.3 4.7 3.3 76 1.7 WNW 6 11 3 6 - - 0.0
24/04:00pm 7.6 4.1 1.5 65 2.5 NW 9 13 5 7 - - 0.0
24/03:30pm 8.0 4.1 1.4 63 2.7 N 11 20 6 11 - - 0.0
24/03:00pm 8.4 5.5 1.6 62 2.8 N 6 9 3 5 - - 0.0
24/02:30pm 8.6 4.7 1.3 60 3.0 N 11 15 6 8 - - 0.0
24/02:00pm 8.9 6.0 1.7 60 3.0 E 6 13 3 7 - - 0.0
24/01:30pm 8.7 5.2 1.1 59 3.1 NW 9 15 5 8 - - 0.0
24/01:00pm 8.5 4.6 1.4 61 2.9 NNW 11 20 6 11 - - 0.0
24/12:30pm 8.0 4.9 1.1 62 2.8 N 7 13 4 7 - - 0.0
24/12:00pm 7.1 5.4 2.0 70 2.1 CALM 0 0 0 0 - - 0.0
24/11:30am 6.2 3.3 1.7 73 1.8 S 6 9 3 5 - - 0.0
24/11:00am 5.4 3.0 2.2 80 1.3 SSW 4 6 2 3 - - 0.0
24/10:30am 4.3 1.9 2.3 87 0.8 SSW 4 11 2 6 - - 0.0
24/10:00am 3.6 1.9 1.8 88 0.7 CALM 0 0 0 0 - - 0.0
24/09:30am 2.1 - - - - CALM 0 4 0 2 - - 0.0
24/09:00am 0.5 - - - - NE 7 9 4 5 - - 5.0
24/08:30am -0.9 - - - - N 6 7 3 4 - - 5.0
24/08:00am -1.3 - - - - ENE 4 9 2 5 - - 5.0
24/07:30am -1.2 - - - - NW 4 7 2 4 - - 5.0
24/07:00am -1.3 - - - - W 2 9 1 5 - - 5.0
24/06:30am -0.9 - - - - NE 6 11 3 6 - - 5.0
24/06:00am -1.0 - - - - ENE 9 11 5 6 - - 5.0
24/05:30am -0.8 - - - - NW 7 11 4 6 - - 5.0
24/05:00am -1.3 - - - - ESE 2 6 1 3 - - 5.0
24/04:30am -0.6 - - - - CALM 0 0 0 0 - - 5.0
24/04:00am -0.4 - - - - NE 7 11 4 6 - - 5.0
24/03:30am 0.1 - - - - E 6 7 3 4 - - 5.0
24/03:00am 0.2 - - - - W 6 7 3 4 - - 5.0
24/02:30am 0.2 - - - - SSE 6 11 3 6 - - 5.0
24/02:00am -0.3 - - - - CALM 0 0 0 0 - - 5.0
24/01:30am -0.5 - - - - NNE 4 9 2 5 - - 5.0
24/01:00am -0.4 - - - - N 7 11 4 6 - - 5.0
24/12:30am -0.1 - - - - NE 9 13 5 7 - - 5.0
24/12:00am -0.2 - - - - NNE 6 7 3 4 - - 5.0
 
Date/Time
EST
Temp
°C
App
Temp
°C
Dew
Point
°C
Rel
Hum
%
Delta-T
°C
Wind Press
QNH
hPa
Press
MSL
hPa
Rain since
9am
mm
Dir  Spd
km/h
Gust
km/h
Spd
kts
Gust
kts
23/11:30pm 0.2 - - - - NNE 6 7 3 4 - - 5.0
23/11:00pm 0.9 -2.5 -0.5 90 0.5 ENE 7 15 4 8 - - 5.0
23/10:30pm 1.0 -2.3 -0.1 92 0.4 N 7 11 4 6 - - 5.0
23/10:00pm 1.9 -1.5 -0.6 83 0.9 SW 7 11 4 6 - - 5.0
23/09:30pm 0.5 - - - - NNW 2 9 1 5 - - 5.0
23/09:00pm 1.4 -1.9 0.3 92 0.4 SW 7 9 4 5 - - 5.0
23/08:30pm 2.2 -1.5 0.0 85 0.8 SW 9 17 5 9 - - 5.0
23/08:00pm 2.0 -2.0 0.4 89 0.6 SW 11 17 6 9 - - 4.8
23/07:30pm 2.0 -2.0 0.4 89 0.6 W 11 24 6 13 - - 4.8
23/07:00pm 3.4 -2.6 -1.3 71 1.7 WSW 20 32 11 17 - - 4.6
23/06:30pm 2.4 -0.8 0.5 87 0.7 WNW 7 11 4 6 - - 4.6
23/06:00pm 2.2 -0.8 0.6 89 0.6 ESE 6 9 3 5 - - 4.6
23/05:30pm 2.6 -1.4 0.2 84 0.9 SSW 11 20 6 11 - - 4.6
23/05:00pm 2.6 -3.0 -0.1 82 1.0 W 19 32 10 17 - - 4.4
23/04:30pm 2.2 -1.4 0.3 87 0.7 S 9 13 5 7 - - 4.2
23/04:00pm 2.2 -4.3 0.3 87 0.7 W 24 37 13 20 - - 3.8
23/03:30pm 2.5 -1.0 1.5 93 0.4 SW 9 17 5 9 - - 3.0
23/03:00pm 2.1 -3.6 0.8 91 0.5 WSW 20 35 11 19 - - 2.6
23/02:30pm 4.6 -1.3 -1.1 66 2.1 W 20 33 11 18 - - 1.4
23/02:00pm 4.3 -1.6 -0.8 69 1.9 W 20 33 11 18 - - 1.4
23/01:30pm 2.8 -2.6 1.0 88 0.7 SW 19 28 10 15 - - 1.4
23/01:00pm 5.8 2.2 0.7 70 2.0 W 9 13 5 7 - - 1.2
23/12:30pm 3.7 0.2 1.4 85 0.9 SW 9 13 5 7 - - 1.2
23/12:00pm 2.4 -1.2 0.8 89 0.6 SSW 9 15 5 8 - - 1.2
23/11:30am 2.2 0.0 0.9 91 0.5 SW 2 7 1 4 - - 0.8
23/11:00am 2.4 -2.8 0.0 84 0.9 SW 17 24 9 13 - - 0.6
23/10:30am 3.6 -1.8 -1.1 71 1.7 WSW 17 24 9 13 - - 0.4
23/10:00am 2.5 -1.5 0.4 86 0.8 W 11 19 6 10 - - 0.4
23/09:30am 3.0 -0.9 0.9 86 0.8 SSW 11 19 6 10 - - 0.0
23/09:00am 2.6 -0.9 1.0 89 0.6 W 9 17 5 9 - - 11.0
23/08:30am 3.3 -1.9 0.1 79 1.2 WSW 17 30 9 16 - - 10.8
23/08:00am 3.3 -2.6 -0.5 76 1.4 WSW 20 32 11 17 - - 10.8
23/07:30am 2.0 -1.0 0.9 92 0.4 SSW 6 7 3 4 - - 10.8
23/07:00am 2.8 -1.9 1.2 89 0.6 SW 15 24 8 13 - - 10.6
23/06:30am 2.8 1.1 2.0 94 0.3 CALM 0 0 0 0 - - 10.0
23/06:00am 3.2 0.4 1.9 91 0.5 SSW 6 9 3 5 - - 9.8
23/05:30am 3.9 0.6 2.4 90 0.6 SW 9 13 5 7 - - 8.6
23/05:00am 4.6 -0.3 1.8 82 1.1 WSW 17 30 9 16 - - 8.0
23/04:30am 4.4 1.5 2.7 89 0.7 S 7 9 4 5 - - 7.6
23/04:00am 5.1 1.4 2.1 81 1.2 W 11 15 6 8 - - 7.4
23/03:30am 5.4 1.8 0.8 72 1.8 WSW 9 13 5 7 - - 7.0
23/03:00am 5.7 2.0 -0.3 65 2.3 W 9 15 5 8 - - 7.0
23/02:30am 3.0 0.7 0.1 81 1.1 W 2 7 1 4 - - 7.0
23/02:00am 3.3 1.0 0.1 79 1.2 E 2 7 1 4 - - 7.0
23/01:30am 3.2 -0.2 -0.3 78 1.3 E 7 11 4 6 - - 7.0
23/01:00am 4.1 0.7 -0.8 70 1.8 N 7 15 4 8 - - 7.0
23/12:30am 4.4 0.2 -0.7 69 1.9 N 11 19 6 10 - - 7.0
23/12:00am 2.4 -1.2 0.8 89 0.6 NE 9 13 5 7 - - 7.0
 
Date/Time
EST
Temp
°C
App
Temp
°C
Dew
Point
°C
Rel
Hum
%
Delta-T
°C
Wind Press
QNH
hPa
Press
MSL
hPa
Rain since
9am
mm
Dir  Spd
km/h
Gust
km/h
Spd
kts
Gust
kts
22/11:30pm 3.1 -0.9 0.7 84 0.9 ENE 11 15 6 8 - - 7.0
22/11:00pm 3.6 0.5 1.3 85 0.9 NNE 7 11 4 6 - - 7.0
22/10:30pm 3.8 0.7 1.2 83 1.0 NE 7 9 4 5 - - 7.0

Latest Capital City Observations: Canberra | Sydney | Melbourne | Brisbane | Adelaide | Perth | Hobart | Darwin

Other Formats:

Comma delimited format used in spreadsheet applications
http://www.bom.gov.au/fwo/IDT60901/IDT60901.95977.axf

JavaScript Object Notation format (JSON) in row-major order
http://www.bom.gov.au/fwo/IDT60901/IDT60901.95977.json